Time;durP1;ratioP1;P1;durP2;ratioP2;P2;SDS_P1;SDS_P2;PMS_P1;PMS_P2;Temp;Humidity;BMP_temperature;BMP_pressure;BME280_temperature;BME280_humidity;BME280_pressure;Samples;Min_cycle;Max_cycle;Signal;HPM_P1;HPM_P2
2023/08/25 00:02:24;;;;;;;244.97;30.57;;;;;;;;;;4923907;28;20051;-54
2023/08/25 00:04:49;;;;;;;249.73;29.88;;;;;;;;;;4923968;28;20872;-55
2023/08/25 00:07:14;;;;;;;235.30;27.20;;;;;;;;;;4926294;28;20047;-54
2023/08/25 00:09:39;;;;;;;260.20;30.77;;;;;;;;;;4924503;28;20276;-54
2023/08/25 00:12:05;;;;;;;347.67;33.40;;;;;;;;;;4922422;28;20557;-56
2023/08/25 00:14:30;;;;;;;306.23;32.05;;;;;;;;;;4922796;28;20378;-55
2023/08/25 00:16:56;;;;;;;373.17;31.80;;;;;;;;;;4922594;28;20076;-56
2023/08/25 00:19:21;;;;;;;230.97;27.73;;;;;;;;;;4924498;28;20391;-55
2023/08/25 00:21:46;;;;;;;253.65;27.20;;;;;;;;;;4924052;28;20370;-56
2023/08/25 00:24:12;;;;;;;252.57;28.63;;;;;;;;;;4923189;28;20401;-55
2023/08/25 00:26:39;;;;;;;198.35;26.88;;;;;;;;;;4924564;28;20789;-57
2023/08/25 00:29:04;;;;;;;458.38;35.03;;;;;;;;;;4923630;28;20019;-54
2023/08/25 00:31:29;;;;;;;232.40;27.50;;;;;;;;;;4924306;28;20342;-54
2023/08/25 00:33:55;;;;;;;398.87;34.20;;;;;;;;;;4924773;28;20023;-55
2023/08/25 00:36:20;;;;;;;279.27;30.77;;;;;;;;;;4924314;28;20056;-55
2023/08/25 00:38:45;;;;;;;215.43;25.30;;;;;;;;;;4923832;28;20283;-54
2023/08/25 00:41:11;;;;;;;234.75;23.83;;;;;;;;;;4924260;28;20493;-56
2023/08/25 00:43:38;;;;;;;304.50;29.33;;;;;;;;;;4924196;28;20087;-54
2023/08/25 00:46:03;;;;;;;384.95;35.60;;;;;;;;;;4922782;28;20271;-54
2023/08/25 00:48:29;;;;;;;270.88;31.02;;;;;;;;;;4924010;28;20405;-56
2023/08/25 00:50:54;;;;;;;392.05;35.00;;;;;;;;;;4922074;28;20048;-55
2023/08/25 00:53:20;;;;;;;221.50;30.07;;;;;;;;;;4926478;28;20581;-55
2023/08/25 00:55:45;;;;;;;233.30;30.25;;;;;;;;;;4923082;28;20617;-55
2023/08/25 00:58:11;;;;;;;315.98;32.75;;;;;;;;;;4923581;28;20023;-56
2023/08/25 01:00:39;;;;;;;236.45;32.58;;;;;;;;;;4924364;28;20032;-55
2023/08/25 01:03:04;;;;;;;391.17;39.13;;;;;;;;;;4923096;28;20094;-56
2023/08/25 01:05:30;;;;;;;320.63;36.42;;;;;;;;;;4922568;28;20035;-55
2023/08/25 01:07:57;;;;;;;302.05;35.83;;;;;;;;;;4922810;28;20390;-54
2023/08/25 01:10:25;;;;;;;247.68;35.13;;;;;;;;;;4923994;28;20070;-54
2023/08/25 01:12:57;;;;;;;228.55;19.90;;;;;;;;;;4922669;28;20108;-56
2023/08/25 01:15:23;;;;;;;;;;;;;;;;;;4928395;28;20035;-54
2023/08/25 01:17:57;;;;;;;244.23;28.60;;;;;;;;;;4928378;28;19925;-54
2023/08/25 01:20:23;;;;;;;239.48;25.23;;;;;;;;;;4928934;28;20024;-54
2023/08/25 01:23:07;;;;;;;188.85;25.77;;;;;;;;;;4929126;28;20424;-53
2023/08/25 01:25:32;;;;;;;232.75;26.85;;;;;;;;;;4926706;28;20094;-53
2023/08/25 01:27:59;;;;;;;372.83;34.97;;;;;;;;;;4926509;28;20426;-55
2023/08/25 01:30:26;;;;;;;309.77;31.15;;;;;;;;;;4927509;28;20027;-54
2023/08/25 01:32:52;;;;;;;218.00;30.70;;;;;;;;;;4927939;28;20074;-56
2023/08/25 01:35:19;;;;;;;225.82;32.30;;;;;;;;;;4925903;28;20468;-54
2023/08/25 01:37:53;;;;;;;267.10;31.98;;;;;;;;;;4926665;28;20023;-54
2023/08/25 01:40:23;;;;;;;224.18;32.72;;;;;;;;;;4926558;28;20027;-55
2023/08/25 01:42:50;;;;;;;304.27;36.92;;;;;;;;;;4927468;28;20046;-55
2023/08/25 01:45:17;;;;;;;232.52;35.17;;;;;;;;;;4927229;28;20035;-54
2023/08/25 01:47:45;;;;;;;235.20;25.65;;;;;;;;;;4927557;28;20011;-55
2023/08/25 01:50:10;;;;;;;386.45;32.17;;;;;;;;;;4925154;28;20148;-55
2023/08/25 01:52:35;;;;;;;232.57;29.90;;;;;;;;;;4928070;28;20570;-56
2023/08/25 01:55:01;;;;;;;333.67;34.78;;;;;;;;;;4924937;28;20090;-55
2023/08/25 01:57:27;;;;;;;295.70;34.05;;;;;;;;;;4928372;28;20032;-54
2023/08/25 01:59:53;;;;;;;330.88;31.42;;;;;;;;;;4929294;28;20023;-54
2023/08/25 02:02:18;;;;;;;233.77;32.80;;;;;;;;;;4928575;28;20043;-52
2023/08/25 02:04:43;;;;;;;294.70;30.27;;;;;;;;;;4926552;28;20019;-53
2023/08/25 02:07:08;;;;;;;351.77;33.87;;;;;;;;;;4925463;28;20039;-54
2023/08/25 02:09:33;;;;;;;247.40;26.83;;;;;;;;;;4928046;28;20023;-53
2023/08/25 02:11:59;;;;;;;414.97;32.23;;;;;;;;;;4924066;28;20035;-54
2023/08/25 02:14:24;;;;;;;260.37;26.23;;;;;;;;;;4927276;28;20038;-54
2023/08/25 02:16:49;;;;;;;202.65;25.85;;;;;;;;;;4926948;28;20689;-53
2023/08/25 02:19:14;;;;;;;288.87;28.37;;;;;;;;;;4927763;28;20395;-53
2023/08/25 02:21:40;;;;;;;195.10;21.77;;;;;;;;;;4929307;28;20275;-54
2023/08/25 02:24:05;;;;;;;403.10;33.23;;;;;;;;;;4926379;28;20713;-53
2023/08/25 02:26:30;;;;;;;263.57;25.77;;;;;;;;;;4925045;28;20028;-53
2023/08/25 02:28:55;;;;;;;253.57;21.90;;;;;;;;;;4926908;28;20259;-53
2023/08/25 02:31:21;;;;;;;220.70;23.57;;;;;;;;;;4926792;28;20063;-54
2023/08/25 02:33:46;;;;;;;246.27;28.00;;;;;;;;;;4926990;28;20384;-54
2023/08/25 02:36:11;;;;;;;308.33;33.47;;;;;;;;;;4926540;28;20043;-54
2023/08/25 02:38:36;;;;;;;276.37;34.77;;;;;;;;;;4927861;28;20810;-53
2023/08/25 02:41:01;;;;;;;427.23;39.27;;;;;;;;;;4925614;28;20512;-55
2023/08/25 02:43:27;;;;;;;213.63;18.37;;;;;;;;;;4927120;28;20262;-53
2023/08/25 02:45:52;;;;;;;201.33;20.43;;;;;;;;;;4927519;28;20319;-53
2023/08/25 02:48:17;;;;;;;197.83;16.77;;;;;;;;;;4926611;28;20548;-52
2023/08/25 02:50:43;;;;;;;283.27;25.02;;;;;;;;;;4926464;28;20053;-53
2023/08/25 02:53:08;;;;;;;321.50;29.77;;;;;;;;;;4928054;28;20024;-54
2023/08/25 02:55:33;;;;;;;260.63;26.10;;;;;;;;;;4926849;28;20035;-52
2023/08/25 02:57:58;;;;;;;262.87;30.30;;;;;;;;;;4924913;28;20094;-55
2023/08/25 03:00:24;;;;;;;292.15;33.95;;;;;;;;;;4926151;28;20034;-55
2023/08/25 03:02:50;;;;;;;217.18;31.65;;;;;;;;;;4926819;28;20032;-52
2023/08/25 03:05:15;;;;;;;405.83;40.38;;;;;;;;;;4922888;28;20225;-53
2023/08/25 03:07:40;;;;;;;236.55;35.75;;;;;;;;;;4927032;28;20586;-54
2023/08/25 03:10:06;;;;;;;465.90;42.23;;;;;;;;;;4925908;28;20544;-53
2023/08/25 03:12:31;;;;;;;293.92;37.78;;;;;;;;;;4925877;28;20504;-53
2023/08/25 03:14:56;;;;;;;222.55;37.08;;;;;;;;;;4925537;28;20335;-53
2023/08/25 03:17:22;;;;;;;254.80;37.10;;;;;;;;;;4924124;28;20064;-52
2023/08/25 03:19:48;;;;;;;309.83;41.85;;;;;;;;;;4927235;28;20603;-53
2023/08/25 03:22:13;;;;;;;371.25;42.95;;;;;;;;;;4932213;28;20031;-52
2023/08/25 03:24:38;;;;;;;258.83;39.28;;;;;;;;;;4926148;28;20027;-53
2023/08/25 03:27:03;;;;;;;446.90;46.67;;;;;;;;;;4924615;28;20073;-58
2023/08/25 03:29:31;;;;;;;274.17;39.60;;;;;;;;;;4925233;28;20307;-53
2023/08/25 03:31:56;;;;;;;255.50;39.22;;;;;;;;;;4925974;28;20292;-52
2023/08/25 03:34:21;;;;;;;300.48;40.85;;;;;;;;;;4925871;28;20063;-54
2023/08/25 03:36:47;;;;;;;216.73;44.00;;;;;;;;;;4926858;28;20113;-53
2023/08/25 03:39:12;;;;;;;340.90;41.93;;;;;;;;;;4924178;28;20270;-52
2023/08/25 03:41:37;;;;;;;275.77;39.22;;;;;;;;;;4923966;28;20275;-54
2023/08/25 03:44:03;;;;;;;311.10;40.00;;;;;;;;;;4925165;28;20023;-54
2023/08/25 03:46:28;;;;;;;281.13;41.05;;;;;;;;;;4925438;28;20812;-53
2023/08/25 03:48:53;;;;;;;305.47;41.77;;;;;;;;;;4925618;28;20023;-56
2023/08/25 03:51:18;;;;;;;386.13;43.10;;;;;;;;;;4923866;28;20375;-55
2023/08/25 03:53:44;;;;;;;233.07;37.83;;;;;;;;;;4925729;28;20027;-53
2023/08/25 03:56:09;;;;;;;423.70;44.63;;;;;;;;;;4922626;28;20276;-53
2023/08/25 03:58:34;;;;;;;224.67;39.50;;;;;;;;;;4925484;28;20023;-55
2023/08/25 04:00:59;;;;;;;248.73;40.37;;;;;;;;;;4926292;28;20278;-52
2023/08/25 04:03:25;;;;;;;354.08;43.15;;;;;;;;;;4922689;28;20268;-54
2023/08/25 04:05:50;;;;;;;284.80;77.88;;;;;;;;;;4926196;28;20028;-55
2023/08/25 04:08:15;;;;;;;386.13;48.08;;;;;;;;;;4925177;28;20047;-53
2023/08/25 04:10:43;;;;;;;369.13;72.53;;;;;;;;;;4925711;28;20453;-53
2023/08/25 04:13:09;;;;;;;409.48;48.33;;;;;;;;;;4925858;28;20031;-54
2023/08/25 04:15:35;;;;;;;262.85;42.50;;;;;;;;;;4925690;28;20300;-54
2023/08/25 04:18:00;;;;;;;313.30;43.80;;;;;;;;;;4933097;28;20023;-53
2023/08/25 04:20:26;;;;;;;284.90;42.40;;;;;;;;;;4923725;28;20595;-54
2023/08/25 04:22:51;;;;;;;231.20;42.40;;;;;;;;;;4925224;28;20430;-58
2023/08/25 04:25:16;;;;;;;478.93;50.00;;;;;;;;;;4924055;28;20019;-55
2023/08/25 04:27:42;;;;;;;224.57;43.67;;;;;;;;;;4925122;28;20801;-54
2023/08/25 04:30:07;;;;;;;364.70;48.35;;;;;;;;;;4924407;28;20306;-53
2023/08/25 04:32:32;;;;;;;343.67;48.17;;;;;;;;;;4924612;28;20482;-53
2023/08/25 04:34:58;;;;;;;218.38;43.20;;;;;;;;;;4926540;28;20069;-53
2023/08/25 04:37:23;;;;;;;235.27;33.73;;;;;;;;;;4923346;28;20043;-54
2023/08/25 04:39:48;;;;;;;301.00;38.03;;;;;;;;;;4927933;28;20275;-53
2023/08/25 04:42:13;;;;;;;373.23;41.03;;;;;;;;;;4922740;28;20311;-54
2023/08/25 04:44:39;;;;;;;232.50;37.93;;;;;;;;;;4924957;28;20023;-55
2023/08/25 04:47:04;;;;;;;326.20;40.60;;;;;;;;;;4924933;28;20956;-53
2023/08/25 04:49:29;;;;;;;262.42;39.75;;;;;;;;;;4926664;28;20270;-54
2023/08/25 04:51:55;;;;;;;287.00;40.33;;;;;;;;;;4923473;28;20047;-54
2023/08/25 04:54:20;;;;;;;376.38;44.17;;;;;;;;;;4921990;28;20031;-53
2023/08/25 04:56:46;;;;;;;229.20;39.50;;;;;;;;;;4925273;28;20035;-54
2023/08/25 04:59:11;;;;;;;358.20;42.65;;;;;;;;;;4923529;28;20023;-54
2023/08/25 05:01:36;;;;;;;317.27;42.10;;;;;;;;;;4924270;28;20449;-55
2023/08/25 05:04:02;;;;;;;262.77;40.58;;;;;;;;;;4926429;28;20035;-55
2023/08/25 05:06:27;;;;;;;246.85;40.05;;;;;;;;;;4924288;28;20042;-55
2023/08/25 05:08:54;;;;;;;310.07;41.93;;;;;;;;;;4925084;28;20034;-56
2023/08/25 05:11:19;;;;;;;361.98;45.92;;;;;;;;;;4922676;28;20039;-55
2023/08/25 05:13:44;;;;;;;234.25;40.15;;;;;;;;;;4926737;28;20039;-54
2023/08/25 05:16:10;;;;;;;418.90;48.03;;;;;;;;;;4922521;28;20502;-55
2023/08/25 05:18:35;;;;;;;272.95;42.38;;;;;;;;;;4923469;28;20746;-54
2023/08/25 05:21:00;;;;;;;255.20;43.13;;;;;;;;;;4925344;28;20506;-54
2023/08/25 05:23:26;;;;;;;297.05;42.50;;;;;;;;;;4922964;28;20500;-54
2023/08/25 05:25:51;;;;;;;243.55;40.45;;;;;;;;;;4924449;28;20111;-54
2023/08/25 05:28:16;;;;;;;399.70;46.35;;;;;;;;;;4925315;28;20027;-55
2023/08/25 05:30:50;;;;;;;297.17;40.67;;;;;;;;;;4923416;28;20110;-53
2023/08/25 05:33:15;;;;;;;366.38;41.70;;;;;;;;;;4925394;28;20126;-54
2023/08/25 05:35:41;;;;;;;237.47;37.03;;;;;;;;;;4923600;28;20035;-54
2023/08/25 05:38:06;;;;;;;309.63;38.70;;;;;;;;;;4923644;28;20027;-55
2023/08/25 05:40:31;;;;;;;272.67;38.20;;;;;;;;;;4921124;28;20630;-53
2023/08/25 05:42:57;;;;;;;265.80;37.85;;;;;;;;;;4924365;28;20019;-53
2023/08/25 05:45:22;;;;;;;406.88;41.40;;;;;;;;;;4922461;28;20557;-53
2023/08/25 05:47:47;;;;;;;193.80;34.60;;;;;;;;;;4924511;28;20213;-53
2023/08/25 05:50:12;;;;;;;383.97;40.43;;;;;;;;;;4921988;28;20324;-54
2023/08/25 05:52:39;;;;;;;252.40;23.03;;;;;;;;;;4925790;28;20071;-54
2023/08/25 05:55:05;;;;;;;223.43;19.00;;;;;;;;;;4923845;28;20019;-55
2023/08/25 05:57:31;;;;;;;223.40;16.25;;;;;;;;;;4923507;28;20031;-53
2023/08/25 05:59:58;;;;;;;366.83;18.50;;;;;;;;;;4923485;28;20023;-53
2023/08/25 06:02:23;;;;;;;341.40;15.23;;;;;;;;;;4925875;28;20130;-54
2023/08/25 06:04:48;;;;;;;200.83;9.30;;;;;;;;;;4929589;28;20033;-55
2023/08/25 06:07:13;;;;;;;377.67;17.17;;;;;;;;;;4926220;28;20122;-53
2023/08/25 06:09:39;;;;;;;250.03;27.60;;;;;;;;;;4928980;28;20038;-55
2023/08/25 06:12:04;;;;;;;168.07;8.50;;;;;;;;;;4926415;28;20517;-55
2023/08/25 06:14:30;;;;;;;497.17;315.92;;;;;;;;;;4928328;28;20267;-56
2023/08/25 06:16:59;;;;;;;397.38;179.98;;;;;;;;;;4929061;28;20047;-54
2023/08/25 06:19:24;;;;;;;325.73;17.08;;;;;;;;;;4925163;28;20038;-54
2023/08/25 06:21:50;;;;;;;446.23;278.83;;;;;;;;;;4923993;28;20023;-53
2023/08/25 06:24:15;;;;;;;314.48;12.55;;;;;;;;;;4927067;28;20023;-55
2023/08/25 06:26:41;;;;;;;260.37;79.73;;;;;;;;;;4927772;28;20071;-55
2023/08/25 06:29:07;;;;;;;301.58;23.75;;;;;;;;;;4928396;28;20323;-57
2023/08/25 06:31:33;;;;;;;329.37;161.73;;;;;;;;;;4925062;28;20572;-55
2023/08/25 06:33:59;;;;;;;400.50;232.27;;;;;;;;;;4928164;28;20024;-56
2023/08/25 06:36:24;;;;;;;401.83;50.97;;;;;;;;;;4924809;28;20046;-55
2023/08/25 06:38:50;;;;;;;428.23;322.03;;;;;;;;;;4927130;28;20023;-55
2023/08/25 06:41:15;;;;;;;495.17;325.40;;;;;;;;;;4924467;28;20727;-55
2023/08/25 06:43:40;;;;;;;287.17;114.90;;;;;;;;;;4928398;28;20108;-55
2023/08/25 06:46:05;;;;;;;195.90;17.20;;;;;;;;;;4926546;28;20172;-56
2023/08/25 06:48:30;;;;;;;332.33;138.10;;;;;;;;;;4925856;28;20070;-56
2023/08/25 06:50:56;;;;;;;418.70;177.70;;;;;;;;;;4924714;28;20043;-55
2023/08/25 06:53:21;;;;;;;589.33;347.23;;;;;;;;;;4925559;28;20042;-57
2023/08/25 06:55:46;;;;;;;472.17;215.43;;;;;;;;;;4927682;28;20267;-56
2023/08/25 06:58:12;;;;;;;254.57;41.85;;;;;;;;;;4926733;28;20291;-57
2023/08/25 07:00:37;;;;;;;401.43;302.30;;;;;;;;;;4926117;28;20987;-58
2023/08/25 07:03:03;;;;;;;493.03;351.10;;;;;;;;;;4928501;28;20045;-56
2023/08/25 07:05:28;;;;;;;533.80;300.00;;;;;;;;;;4928445;28;20039;-57
2023/08/25 07:07:54;;;;;;;440.17;375.03;;;;;;;;;;4931261;28;20030;-56
2023/08/25 07:10:20;;;;;;;478.17;269.23;;;;;;;;;;4928184;28;20263;-55
2023/08/25 07:12:45;;;;;;;461.85;381.38;;;;;;;;;;4929256;28;20238;-56
2023/08/25 07:15:10;;;;;;;427.07;297.33;;;;;;;;;;4926717;28;20062;-56
2023/08/25 07:17:36;;;;;;;453.80;347.45;;;;;;;;;;4929190;28;20800;-56
2023/08/25 07:20:02;;;;;;;530.05;364.73;;;;;;;;;;4928947;28;20473;-57
2023/08/25 07:22:27;;;;;;;589.25;370.67;;;;;;;;;;4927716;28;20094;-56
2023/08/25 07:24:53;;;;;;;426.53;374.93;;;;;;;;;;4929902;28;20016;-55
2023/08/25 07:27:21;;;;;;;562.17;396.63;;;;;;;;;;4928374;28;20107;-57
2023/08/25 07:29:47;;;;;;;523.25;466.60;;;;;;;;;;4930087;28;20035;-56
2023/08/25 07:32:12;;;;;;;386.00;240.65;;;;;;;;;;4930318;28;20445;-58
2023/08/25 07:34:37;;;;;;;483.10;414.17;;;;;;;;;;4926924;28;20114;-57
2023/08/25 07:37:03;;;;;;;465.55;361.33;;;;;;;;;;4929286;28;20035;-55
2023/08/25 07:39:29;;;;;;;578.20;408.88;;;;;;;;;;4927539;28;20030;-57
2023/08/25 07:41:54;;;;;;;405.70;299.80;;;;;;;;;;4929243;28;20032;-57
2023/08/25 07:44:19;;;;;;;552.30;413.43;;;;;;;;;;4928186;28;20023;-55
2023/08/25 07:46:45;;;;;;;401.27;331.90;;;;;;;;;;4929530;28;20275;-56
2023/08/25 07:49:10;;;;;;;435.17;345.27;;;;;;;;;;4932214;28;20027;-56
2023/08/25 07:51:36;;;;;;;294.20;87.77;;;;;;;;;;4926553;28;20182;-56
2023/08/25 07:54:01;;;;;;;365.83;213.57;;;;;;;;;;4931975;28;20271;-55
2023/08/25 07:56:26;;;;;;;492.97;340.20;;;;;;;;;;4928229;28;20059;-56
2023/08/25 07:58:53;;;;;;;487.33;360.05;;;;;;;;;;4930113;28;20066;-57
2023/08/25 08:01:18;;;;;;;402.63;310.27;;;;;;;;;;4927764;28;20038;-55
2023/08/25 08:03:43;;;;;;;383.10;215.93;;;;;;;;;;4930416;28;20062;-56
2023/08/25 08:06:08;;;;;;;565.70;353.27;;;;;;;;;;4930340;28;20271;-58
2023/08/25 08:08:34;;;;;;;263.10;84.57;;;;;;;;;;4928239;28;20063;-54
2023/08/25 08:10:59;;;;;;;394.77;177.38;;;;;;;;;;4929777;28;20711;-57
2023/08/25 08:13:24;;;;;;;547.57;380.07;;;;;;;;;;4928604;28;20533;-55
2023/08/25 08:15:49;;;;;;;384.17;290.60;;;;;;;;;;4927801;28;20260;-56
2023/08/25 08:18:15;;;;;;;369.15;217.10;;;;;;;;;;4926687;28;20314;-55
2023/08/25 08:20:42;;;;;;;271.73;62.20;;;;;;;;;;4927239;28;20410;-53
2023/08/25 08:23:07;;;;;;;175.48;24.42;;;;;;;;;;4929496;28;20070;-54
2023/08/25 08:25:35;;;;;;;390.43;81.23;;;;;;;;;;4926872;28;20039;-53
2023/08/25 08:28:01;;;;;;;267.85;72.28;;;;;;;;;;4928856;28;20270;-56
2023/08/25 08:30:26;;;;;;;400.50;152.98;;;;;;;;;;4927279;28;20043;-55
2023/08/25 08:32:51;;;;;;;245.52;90.60;;;;;;;;;;4934996;28;20126;-54
2023/08/25 08:35:17;;;;;;;210.50;34.20;;;;;;;;;;4925411;28;20051;-53
2023/08/25 08:37:43;;;;;;;212.02;49.92;;;;;;;;;;4926891;28;21215;-54
2023/08/25 08:40:09;;;;;;;327.80;41.03;;;;;;;;;;4927001;28;20032;-53
2023/08/25 08:42:38;;;;;;;360.60;19.73;;;;;;;;;;4926849;28;20023;-54
2023/08/25 08:45:05;;;;;;;158.70;9.07;;;;;;;;;;4928344;28;20050;-55
2023/08/25 08:47:31;;;;;;;271.13;12.95;;;;;;;;;;4925539;28;20058;-53
2023/08/25 08:49:57;;;;;;;281.60;21.80;;;;;;;;;;4929465;28;20028;-55
2023/08/25 08:52:23;;;;;;;278.95;14.57;;;;;;;;;;4927136;28;20081;-55
2023/08/25 08:54:48;;;;;;;196.13;11.77;;;;;;;;;;4927845;28;20102;-54
2023/08/25 08:57:14;;;;;;;135.40;10.50;;;;;;;;;;4926514;28;20457;-55
2023/08/25 08:59:40;;;;;;;134.90;11.43;;;;;;;;;;4929200;28;20107;-53
2023/08/25 09:02:05;;;;;;;199.50;14.10;;;;;;;;;;4927039;28;20106;-56
2023/08/25 09:04:31;;;;;;;315.17;18.02;;;;;;;;;;4927402;28;20026;-53
2023/08/25 09:06:58;;;;;;;167.38;15.52;;;;;;;;;;4928265;28;20031;-54
2023/08/25 09:09:23;;;;;;;272.67;16.83;;;;;;;;;;4927333;28;20030;-56
2023/08/25 09:11:49;;;;;;;157.05;12.63;;;;;;;;;;4926944;28;20028;-53
2023/08/25 09:14:27;;;;;;;158.77;12.60;;;;;;;;;;4927703;28;20012;-55
2023/08/25 09:16:54;;;;;;;193.10;12.85;;;;;;;;;;4927489;28;20517;-54
2023/08/25 09:19:19;;;;;;;149.15;10.98;;;;;;;;;;4926797;28;20047;-53
2023/08/25 09:21:48;;;;;;;195.60;13.37;;;;;;;;;;4926330;28;20035;-54
2023/08/25 09:24:22;;;;;;;176.65;23.58;;;;;;;;;;4928345;28;21009;-56
2023/08/25 09:26:48;;;;;;;142.82;17.05;;;;;;;;;;4926425;28;20074;-55
2023/08/25 09:29:13;;;;;;;300.25;158.30;;;;;;;;;;4929910;28;20023;-54
2023/08/25 09:31:39;;;;;;;296.67;148.65;;;;;;;;;;4925814;28;21427;-54
2023/08/25 09:34:05;;;;;;;189.95;9.90;;;;;;;;;;4929238;28;20510;-54
2023/08/25 09:36:31;;;;;;;246.70;11.98;;;;;;;;;;4934277;28;20039;-56
2023/08/25 09:38:57;;;;;;;390.50;295.67;;;;;;;;;;4931815;28;20043;-55
2023/08/25 09:41:26;;;;;;;278.70;53.30;;;;;;;;;;4928633;28;20031;-55
2023/08/25 09:43:57;;;;;;;212.85;26.48;;;;;;;;;;4931971;28;20087;-54
2023/08/25 09:46:26;;;;;;;384.67;233.75;;;;;;;;;;4929435;28;20036;-55
2023/08/25 09:48:52;;;;;;;191.10;8.38;;;;;;;;;;4930617;28;20077;-54
2023/08/25 09:51:17;;;;;;;213.70;81.95;;;;;;;;;;4930555;28;20410;-56
2023/08/25 09:53:44;;;;;;;114.78;6.57;;;;;;;;;;4931198;28;20255;-55
2023/08/25 09:56:10;;;;;;;235.90;46.47;;;;;;;;;;4928578;28;20032;-55
2023/08/25 09:58:36;;;;;;;291.77;13.25;;;;;;;;;;4929681;28;20065;-54
2023/08/25 10:01:01;;;;;;;233.10;34.65;;;;;;;;;;4929143;28;20031;-55
2023/08/25 10:03:27;;;;;;;315.92;14.10;;;;;;;;;;4928325;28;20187;-56
2023/08/25 10:05:52;;;;;;;131.00;14.05;;;;;;;;;;4931704;28;20031;-56
2023/08/25 10:08:18;;;;;;;180.00;9.33;;;;;;;;;;4931241;28;20036;-54
2023/08/25 10:10:44;;;;;;;186.20;10.95;;;;;;;;;;4928920;28;20274;-54
2023/08/25 10:13:11;;;;;;;164.27;9.20;;;;;;;;;;4933485;28;20114;-57
2023/08/25 10:15:37;;;;;;;387.27;72.68;;;;;;;;;;4929388;28;20031;-55
2023/08/25 10:18:03;;;;;;;211.93;56.30;;;;;;;;;;4930647;28;20418;-55
2023/08/25 10:20:31;;;;;;;284.75;13.52;;;;;;;;;;4928648;28;20473;-55
2023/08/25 10:22:57;;;;;;;223.15;11.45;;;;;;;;;;4929915;28;20039;-54
2023/08/25 10:25:26;;;;;;;134.35;8.88;;;;;;;;;;4930619;28;20026;-57
2023/08/25 10:27:51;;;;;;;168.90;17.08;;;;;;;;;;4930191;28;20023;-54
2023/08/25 10:30:17;;;;;;;209.90;11.88;;;;;;;;;;4928708;28;20042;-54
2023/08/25 10:33:01;;;;;;;292.33;174.43;;;;;;;;;;4931929;28;20118;-54
2023/08/25 10:35:39;;;;;;;264.70;16.65;;;;;;;;;;4928513;28;20063;-53
2023/08/25 10:38:25;;;;;;;159.93;11.00;;;;;;;;;;4929811;28;20029;-54
2023/08/25 10:40:54;;;;;;;373.73;196.52;;;;;;;;;;4927985;28;20042;-54
2023/08/25 10:43:26;;;;;;;141.02;17.60;;;;;;;;;;4931016;28;20420;-54
2023/08/25 10:45:51;;;;;;;;;;;;;;;;;;4931559;28;20031;-54
2023/08/25 10:48:16;;;;;;;364.98;158.68;;;;;;;;;;4929139;28;19921;-56
2023/08/25 10:50:42;;;;;;;298.20;37.50;;;;;;;;;;4927992;28;20391;-54
2023/08/25 10:53:28;;;;;;;276.25;24.48;;;;;;;;;;4931823;28;20024;-54
2023/08/25 10:55:53;;;;;;;118.93;9.45;;;;;;;;;;4930137;28;20701;-55
2023/08/25 10:58:18;;;;;;;251.63;44.63;;;;;;;;;;4930600;28;20486;-54
2023/08/25 11:00:43;;;;;;;156.33;18.30;;;;;;;;;;4930861;28;20613;-54
2023/08/25 11:03:09;;;;;;;160.40;10.37;;;;;;;;;;4931787;28;20512;-56
2023/08/25 11:05:34;;;;;;;311.75;15.23;;;;;;;;;;4932063;28;20560;-56
2023/08/25 11:08:23;;;;;;;177.30;10.15;;;;;;;;;;4931944;28;20579;-54
2023/08/25 11:11:07;;;;;;;198.00;10.63;;;;;;;;;;4928253;28;20044;-54
2023/08/25 11:13:34;;;;;;;285.02;14.50;;;;;;;;;;4930287;28;20114;-54
2023/08/25 11:16:04;;;;;;;239.43;47.13;;;;;;;;;;4929386;28;20038;-53
2023/08/25 11:18:29;;;;;;;216.55;11.18;;;;;;;;;;4930234;28;20027;-54
2023/08/25 11:20:55;;;;;;;177.00;33.80;;;;;;;;;;4928786;28;20402;-55
2023/08/25 11:23:20;;;;;;;181.80;9.27;;;;;;;;;;4928368;28;20398;-55
2023/08/25 11:25:46;;;;;;;148.27;10.40;;;;;;;;;;4927022;28;20588;-55
2023/08/25 11:28:12;;;;;;;178.27;8.97;;;;;;;;;;4928735;28;20286;-53
2023/08/25 11:30:37;;;;;;;531.63;199.25;;;;;;;;;;4927666;28;20386;-54
2023/08/25 11:33:03;;;;;;;347.05;198.45;;;;;;;;;;4929748;28;20027;-56
2023/08/25 11:35:30;;;;;;;407.40;270.08;;;;;;;;;;4927631;28;20037;-53
2023/08/25 11:37:55;;;;;;;271.90;16.42;;;;;;;;;;4928648;28;20082;-57
2023/08/25 11:40:21;;;;;;;400.47;270.83;;;;;;;;;;4931663;28;20028;-55
2023/08/25 11:42:46;;;;;;;215.50;60.07;;;;;;;;;;4929030;28;20609;-55
2023/08/25 11:45:12;;;;;;;240.75;19.92;;;;;;;;;;4937875;28;20012;-55
2023/08/25 11:47:38;;;;;;;359.52;105.00;;;;;;;;;;4928417;28;20511;-55
2023/08/25 11:50:04;;;;;;;645.30;277.38;;;;;;;;;;4929879;28;20660;-56
2023/08/25 11:52:30;;;;;;;488.88;289.08;;;;;;;;;;4929095;28;20098;-54
2023/08/25 11:54:55;;;;;;;328.05;168.15;;;;;;;;;;4928959;28;20241;-54
2023/08/25 11:57:20;;;;;;;167.87;10.70;;;;;;;;;;4930679;28;20044;-56
2023/08/25 11:59:46;;;;;;;426.40;31.15;;;;;;;;;;4927071;28;20015;-54
2023/08/25 12:02:15;;;;;;;223.40;74.78;;;;;;;;;;4931975;28;20712;-55
2023/08/25 12:04:51;;;;;;;417.27;133.65;;;;;;;;;;4928915;28;20551;-55
2023/08/25 12:07:20;;;;;;;181.32;12.18;;;;;;;;;;4928739;28;20572;-55
2023/08/25 12:09:51;;;;;;;457.77;305.63;;;;;;;;;;4928129;28;20131;-57
2023/08/25 12:12:16;;;;;;;315.95;61.65;;;;;;;;;;4926078;28;20655;-55
2023/08/25 12:14:41;;;;;;;654.60;232.67;;;;;;;;;;4928445;28;20469;-54
2023/08/25 12:17:07;;;;;;;207.48;30.88;;;;;;;;;;4926348;28;20271;-55
2023/08/25 12:19:33;;;;;;;381.48;123.25;;;;;;;;;;4927064;28;20363;-54
2023/08/25 12:22:02;;;;;;;544.72;335.25;;;;;;;;;;4928031;28;20200;-54
2023/08/25 12:24:27;;;;;;;323.73;172.45;;;;;;;;;;4930594;28;20114;-54
2023/08/25 12:26:52;;;;;;;303.67;26.87;;;;;;;;;;4927480;28;20155;-55
2023/08/25 12:29:21;;;;;;;158.40;13.97;;;;;;;;;;4928559;28;20042;-55
2023/08/25 12:31:46;;;;;;;280.30;18.42;;;;;;;;;;4926899;28;21073;-54
2023/08/25 12:34:11;;;;;;;327.63;66.40;;;;;;;;;;4929266;28;20034;-55
2023/08/25 12:36:37;;;;;;;300.63;12.97;;;;;;;;;;4925879;28;20475;-54
2023/08/25 12:39:03;;;;;;;194.40;22.00;;;;;;;;;;4927805;28;20420;-55
2023/08/25 12:41:28;;;;;;;356.92;48.63;;;;;;;;;;4927394;28;20256;-56
2023/08/25 12:43:54;;;;;;;269.45;154.98;;;;;;;;;;4929553;28;20019;-55
2023/08/25 12:46:21;;;;;;;286.17;165.70;;;;;;;;;;4929082;28;20680;-57
2023/08/25 12:48:47;;;;;;;564.42;322.50;;;;;;;;;;4927937;28;20054;-56
2023/08/25 12:51:12;;;;;;;168.03;29.97;;;;;;;;;;4927222;28;20461;-55
2023/08/25 12:53:37;;;;;;;328.33;30.17;;;;;;;;;;4925931;28;20848;-55
2023/08/25 12:56:02;;;;;;;476.60;249.43;;;;;;;;;;4929567;28;20043;-57
2023/08/25 12:58:28;;;;;;;163.38;9.63;;;;;;;;;;4928348;28;20367;-54
2023/08/25 13:00:53;;;;;;;423.23;279.63;;;;;;;;;;4925619;28;20040;-54
2023/08/25 13:03:20;;;;;;;467.03;278.67;;;;;;;;;;4926724;28;20036;-54
2023/08/25 13:05:47;;;;;;;488.77;326.23;;;;;;;;;;4926005;28;20063;-55
2023/08/25 13:08:13;;;;;;;350.13;194.82;;;;;;;;;;4931073;28;20021;-57
2023/08/25 13:10:38;;;;;;;576.10;319.48;;;;;;;;;;4925581;28;20102;-55
2023/08/25 13:13:05;;;;;;;229.00;24.97;;;;;;;;;;4931606;28;20532;-54
2023/08/25 13:15:30;;;;;;;372.65;178.02;;;;;;;;;;4934579;28;20098;-54
2023/08/25 13:17:56;;;;;;;458.20;315.52;;;;;;;;;;4932679;28;20047;-57
2023/08/25 13:20:21;;;;;;;178.27;16.27;;;;;;;;;;4933398;28;20038;-56
2023/08/25 13:22:46;;;;;;;294.48;48.00;;;;;;;;;;4932564;28;20504;-56
2023/08/25 13:25:12;;;;;;;350.70;181.13;;;;;;;;;;4933471;28;20483;-55
2023/08/25 13:27:37;;;;;;;488.73;290.52;;;;;;;;;;4931291;28;20036;-56
2023/08/25 13:30:04;;;;;;;319.17;71.35;;;;;;;;;;4931732;28;20023;-54
2023/08/25 13:32:29;;;;;;;397.67;236.27;;;;;;;;;;4931156;28;20043;-54
2023/08/25 13:34:54;;;;;;;402.60;335.10;;;;;;;;;;4929292;28;20073;-56
2023/08/25 13:37:20;;;;;;;422.77;279.90;;;;;;;;;;4932918;28;20514;-55
2023/08/25 13:39:45;;;;;;;362.17;98.47;;;;;;;;;;4929461;28;20061;-55
2023/08/25 13:42:10;;;;;;;381.00;288.75;;;;;;;;;;4931268;28;20276;-56
2023/08/25 13:44:38;;;;;;;223.43;52.43;;;;;;;;;;4931586;28;20460;-54
2023/08/25 13:47:04;;;;;;;257.95;55.38;;;;;;;;;;4932805;28;20268;-55
2023/08/25 13:49:29;;;;;;;226.63;104.28;;;;;;;;;;4931290;28;20395;-55
2023/08/25 13:51:54;;;;;;;146.80;7.50;;;;;;;;;;4928630;28;20115;-56
2023/08/25 13:54:19;;;;;;;308.60;146.90;;;;;;;;;;4933380;28;20024;-57
2023/08/25 13:56:45;;;;;;;533.00;303.25;;;;;;;;;;4930629;28;20042;-56
2023/08/25 13:59:10;;;;;;;131.27;18.58;;;;;;;;;;4929590;28;20339;-55